Latest Coastal Weather Observations for Hillarys Point Boat Harbour

IDW60701

Issued at 3:15 am WST Thursday 31 July 2014 (issued every 10 minutes, with the page automatically refreshed every 10 minutes)

About coastal observations | Map of coastal stations | Coastal observations for WA | Marine services | Other Formats
Station Details ID: 009265 Name: HILLARYS BOAT HARBOUR NTC AWS Lat: -31.83 Lon: 115.74 Height: 0.0 m
Data from the previous 72 hours. | See also: Recent months for locations in Western Australia
Date/Time
WST
Temp

°C
Wind Pressure Rain
since 9am
mm
Weather Cloud Vis
km
Sea
Height
m
Swell
Dir
 
Speed
knots
Gust
knots
hPa Trend Height
m
Period
s
Dir
31/03:00am 14.1 SSE 8 14 1023.0 - - - - - - - - -
31/02:30am 14.4 S 5 12 1022.7 - - - - - - - - -
31/02:00am 14.7 S 6 13 1022.5 - - - - - - - - -
31/01:30am 14.9 SSE 3 7 1022.5 - - - - - - - - -
31/01:00am 15.4 S 5 13 1022.4 - - - - - - - - -
31/12:30am 16.6 SW 6 12 1022.2 - - - - - - - - -
31/12:00am 16.5 SW 10 17 1022.2 - - - - - - - - -
 
Date/Time
WST
Temp

°C
Wind Pressure Rain
since 9am
mm
Weather Cloud Vis
km
Sea
Height
m
Swell
Dir
 
Speed
knots
Gust
knots
hPa Trend Height
m
Period
s
Dir
30/11:30pm 16.4 S 4 9 1022.0 - - - - - - - - -
30/11:00pm 17.3 SW 11 16 1022.0 - - - - - - - - -
30/10:30pm 17.4 SW 10 14 1021.9 - - - - - - - - -
30/10:00pm 17.1 SW 10 14 1021.9 - - - - - - - - -
30/09:30pm 17.0 SW 11 16 1021.9 - - - - - - - - -
30/09:00pm 16.7 WSW 12 16 1021.9 - - - - - - - - -
30/08:30pm 16.6 WSW 10 13 1021.9 - - - - - - - - -
30/08:00pm 15.6 WSW 8 13 1022.0 - - - - - - - - -
30/07:30pm 16.4 WSW 16 21 1021.8 - - - - - - - - -
30/07:00pm 17.6 WSW 11 20 1021.5 - - - - - - - - -
30/06:30pm 17.8 W 8 12 1021.3 - - - - - - - - -
30/06:00pm 17.8 W 8 12 1021.3 - - - - - - - - -
30/05:30pm 17.8 WSW 12 17 1021.4 - - - - - - - - -
30/05:00pm 17.8 W 9 13 1021.4 - - - - - - - - -
30/04:30pm 17.7 WSW 12 17 1021.1 - - - - - - - - -
30/04:00pm 17.8 WSW 14 19 1021.1 - - - - - - - - -
30/03:30pm 17.7 WSW 14 18 1021.1 - - - - - - - - -
30/03:00pm 17.7 W 8 12 1020.9 - - - - - - - - -
30/02:30pm 17.6 W 9 13 1020.8 - - - - - - - - -
30/02:00pm 17.6 W 10 15 1020.9 - - - - - - - - -
30/01:30pm 17.5 W 9 13 1021.0 - - - - - - - - -
30/01:00pm 17.5 WNW 8 12 1021.1 - - - - - - - - -
30/12:30pm 17.4 W 7 11 1021.2 - - - - - - - - -
30/12:00pm 17.5 W 9 14 1021.4 - - - - - - - - -
30/11:30am 17.3 WSW 10 14 1021.7 - - - - - - - - -
30/11:00am 17.2 WSW 10 13 1022.0 - - - - - - - - -
30/10:30am 17.2 WSW 9 12 1022.1 - - - - - - - - -
30/10:00am 17.4 W 10 16 1022.3 - - - - - - - - -
30/09:30am 17.3 WNW 6 10 1022.1 - - - - - - - - -
30/09:00am 17.1 W 8 12 1022.0 - - - - - - - - -
30/08:30am 17.1 W 10 17 1021.8 - - - - - - - - -
30/08:00am 17.3 W 8 12 1021.6 - - - - - - - - -
30/07:30am 17.2 W 8 13 1021.5 - - - - - - - - -
30/07:00am 17.3 W 10 17 1021.3 - - - - - - - - -
30/06:30am 17.2 W 9 15 1021.2 - - - - - - - - -
30/06:00am 17.2 WSW 9 14 1021.3 - - - - - - - - -
30/05:30am 17.3 W 9 14 1021.2 - - - - - - - - -
30/05:00am 17.2 WNW 7 11 1021.2 - - - - - - - - -
30/04:30am 17.1 W 7 12 1021.2 - - - - - - - - -
30/04:00am 17.1 W 10 16 1021.2 - - - - - - - - -
30/03:30am 17.2 W 9 14 1021.4 - - - - - - - - -
30/03:00am 17.2 W 6 12 1021.5 - - - - - - - - -
30/02:30am 17.0 W 7 11 1021.9 - - - - - - - - -
30/02:00am 17.0 W 11 16 1022.2 - - - - - - - - -
30/01:30am 17.2 W 9 13 1022.4 - - - - - - - - -
30/01:00am 17.1 WNW 7 10 1022.4 - - - - - - - - -
30/12:30am 16.9 W 6 10 1022.7 - - - - - - - - -
30/12:00am 17.2 WNW 7 13 1022.7 - - - - - - - - -
 
Date/Time
WST
Temp

°C
Wind Pressure Rain
since 9am
mm
Weather Cloud Vis
km
Sea
Height
m
Swell
Dir
 
Speed
knots
Gust
knots
hPa Trend Height
m
Period
s
Dir
29/11:30pm 17.2 W 8 12 1022.8 - - - - - - - - -
29/11:00pm 17.3 W 9 14 1022.9 - - - - - - - - -
29/10:30pm 17.2 W 8 13 1022.9 - - - - - - - - -
29/10:00pm 17.5 W 7 14 1022.8 - - - - - - - - -
29/09:30pm 17.5 W 7 13 1022.9 - - - - - - - - -
29/09:00pm 17.5 W 8 13 1023.0 - - - - - - - - -
29/08:30pm 17.4 W 8 12 1023.0 - - - - - - - - -
29/08:00pm 17.4 W 9 14 1023.0 - - - - - - - - -
29/07:30pm 17.4 W 8 14 1023.2 - - - - - - - - -
29/07:00pm 17.4 W 9 15 1023.0 - - - - - - - - -
29/06:30pm 17.6 W 8 12 1023.0 - - - - - - - - -
29/06:00pm 17.5 W 7 11 1022.9 - - - - - - - - -
29/05:30pm 17.3 W 7 11 1022.7 - - - - - - - - -
29/05:00pm 16.9 WSW 5 7 1022.6 - - - - - - - - -
29/04:30pm 17.1 WSW 6 9 1022.6 - - - - - - - - -
29/04:00pm 17.1 W 7 11 1022.6 - - - - - - - - -
29/03:30pm 17.1 W 7 14 1022.7 - - - - - - - - -
29/03:00pm 17.4 WSW 7 11 1022.6 - - - - - - - - -
29/02:30pm 17.6 W 8 13 1022.5 - - - - - - - - -
29/02:00pm 17.6 W 8 12 1022.5 - - - - - - - - -
29/01:30pm 17.6 W 8 12 1022.6 - - - - - - - - -
29/01:00pm 17.9 W 7 12 1022.6 - - - - - - - - -
29/12:30pm 17.7 W 6 10 1022.8 - - - - - - - - -
29/12:00pm 17.4 W 7 10 1023.1 - - - - - - - - -
29/11:30am 17.6 W 6 9 1023.5 - - - - - - - - -
29/11:00am 17.4 WSW 7 11 1023.7 - - - - - - - - -
29/10:30am 17.2 W 6 9 1024.0 - - - - - - - - -
29/10:00am 17.0 W 7 12 1024.3 - - - - - - - - -
29/09:30am 17.1 W 8 12 1024.3 - - - - - - - - -
29/09:00am 16.3 NNW 6 11 1024.0 - - - - - - - - -
29/08:30am 16.7 WSW 9 13 1023.7 - - - - - - - - -
29/08:00am 16.4 WSW 5 8 1023.3 - - - - - - - - -
29/07:30am 16.5 WSW 12 20 1022.9 - - - - - - - - -
29/07:00am 17.5 W 8 12 1022.4 - - - - - - - - -
29/06:30am 17.4 W 8 12 1022.2 - - - - - - - - -
29/06:00am 17.3 W 9 14 1022.0 - - - - - - - - -
29/05:30am 17.5 W 8 13 1021.8 - - - - - - - - -
29/05:00am 17.4 W 9 15 1021.7 - - - - - - - - -
29/04:30am 17.6 W 8 13 1021.8 - - - - - - - - -
29/04:00am 17.5 W 9 14 1021.8 - - - - - - - - -
29/03:30am 17.8 W 9 14 1021.9 - - - - - - - - -
29/03:00am 17.7 W 8 13 1022.0 - - - - - - - - -
29/02:30am 17.8 W 11 17 1021.9 - - - - - - - - -
29/02:00am 17.8 W 9 15 1022.0 - - - - - - - - -
29/01:30am 17.7 W 8 13 1022.3 - - - - - - - - -
29/01:00am 17.6 W 4 7 1022.5 - - - - - - - - -
29/12:30am 17.3 W 9 15 1022.5 - - - - - - - - -
29/12:00am 17.6 W 9 14 1022.3 - - - - - - - - -
 
Date/Time
WST
Temp

°C
Wind Pressure Rain
since 9am
mm
Weather Cloud Vis
km
Sea
Height
m
Swell
Dir
 
Speed
knots
Gust
knots
hPa Trend Height
m
Period
s
Dir
28/11:30pm 17.6 W 9 13 1022.4 - - - - - - - - -
28/11:00pm 17.7 W 9 15 1022.7 - - - - - - - - -
28/10:30pm 17.6 W 11 15 1022.9 - - - - - - - - -
28/10:00pm 17.6 W 10 17 1023.0 - - - - - - - - -
28/09:30pm 17.1 WNW 7 12 1023.1 - - - - - - - - -
28/09:00pm 17.6 W 9 14 1023.0 - - - - - - - - -
28/08:30pm 17.6 W 8 14 1022.9 - - - - - - - - -
28/08:00pm 17.4 W 8 14 1022.9 - - - - - - - - -
28/07:30pm 17.5 W 9 15 1023.0 - - - - - - - - -
28/07:00pm 17.3 WSW 11 15 1022.7 - - - - - - - - -
28/06:30pm 17.8 W 9 14 1022.5 - - - - - - - - -
28/06:00pm 17.8 W 9 15 1022.1 - - - - - - - - -
28/05:30pm 17.8 W 9 15 1022.0 - - - - - - - - -
28/05:00pm 17.9 W 8 13 1022.0 - - - - - - - - -
28/04:30pm 17.9 WNW 9 13 1021.9 - - - - - - - - -
28/04:00pm 17.9 WNW 9 14 1021.6 - - - - - - - - -
28/03:30pm 18.1 WNW 9 15 1021.4 - - - - - - - - -
28/03:00pm 18.0 W 9 13 1021.5 - - - - - - - - -
28/02:30pm 17.9 W 9 13 1021.7 - - - - - - - - -
28/02:00pm 17.9 W 9 15 1022.0 - - - - - - - - -
28/01:30pm 17.5 W 8 13 1022.1 - - - - - - - - -
28/01:00pm 17.1 W 11 18 1022.5 - - - - - - - - -
28/12:30pm 17.6 W 10 16 1022.8 - - - - - - - - -
28/12:00pm 17.5 W 7 11 1023.0 - - - - - - - - -
28/11:30am 16.3 W 6 11 1023.4 - - - - - - - - -
28/11:00am 16.2 WSW 11 14 1023.7 - - - - - - - - -
28/10:30am 16.5 WNW 8 13 1023.6 - - - - - - - - -
28/10:00am 16.0 WSW 16 23 1023.6 - - - - - - - - -
28/09:30am 17.0 W 10 16 1023.2 - - - - - - - - -
28/09:00am 16.5 W 13 20 1023.0 - - - - - - - - -
28/08:30am 17.2 W 10 16 1022.6 - - - - - - - - -
28/08:00am 16.1 WNW 10 17 1022.4 - - - - - - - - -
28/07:30am 17.1 W 11 17 1022.1 - - - - - - - - -
28/07:00am 17.1 W 9 15 1021.8 - - - - - - - - -
28/06:30am 17.2 W 11 17 1021.5 - - - - - - - - -
28/06:00am 17.1 W 10 17 1021.4 - - - - - - - - -
28/05:30am 17.2 W 10 16 1021.3 - - - - - - - - -
28/05:00am 17.0 W 11 18 1021.4 - - - - - - - - -
28/04:30am 16.3 W 11 17 1021.4 - - - - - - - - -
28/04:00am 17.2 W 10 15 1021.3 - - - - - - - - -
28/03:30am 17.3 W 11 17 1021.5 - - - - - - - - -

Other Formats:

Comma delimited format used in spreadsheet applications
http://www.bom.gov.au/fwo/IDW60701/IDW60701.95605.axf

JavaScript Object Notation format (JSON) in row-major order
http://www.bom.gov.au/fwo/IDW60701/IDW60701.95605.json